createdAt,value
2022-08-26T00:00:56.773Z,28.56
2022-08-26T00:02:59.012Z,28.33
2022-08-26T00:05:00.714Z,28.80
2022-08-26T00:07:02.336Z,28.17
2022-08-26T00:09:04.966Z,28.41
2022-08-26T00:11:10.341Z,28.66
2022-08-26T00:13:13.036Z,28.81
2022-08-26T00:15:19.029Z,28.78
2022-08-26T00:17:21.666Z,28.88
2022-08-26T00:19:23.715Z,28.71
2022-08-26T00:21:25.657Z,28.76
2022-08-26T00:23:28.930Z,29.00
2022-08-26T00:25:30.903Z,28.63
2022-08-26T00:27:35.639Z,28.97
2022-08-26T00:29:37.699Z,28.69
2022-08-26T00:31:40.267Z,28.88
2022-08-26T00:33:42.967Z,28.91
2022-08-26T00:35:47.758Z,28.77
2022-08-26T00:37:49.594Z,28.64
2022-08-26T00:39:51.241Z,28.87
2022-08-26T00:41:54.718Z,28.78
2022-08-26T00:43:56.331Z,28.76
2022-08-26T00:46:13.519Z,28.43
2022-08-26T00:48:18.841Z,28.35
2022-08-26T00:50:26.691Z,28.42
2022-08-26T00:52:28.695Z,27.93
2022-08-26T00:54:36.623Z,27.65
2022-08-26T00:56:43.464Z,27.89
2022-08-26T00:58:47.944Z,27.93
2022-08-26T01:00:49.629Z,28.10
2022-08-26T01:02:51.777Z,27.77
2022-08-26T01:04:56.547Z,28.24
2022-08-26T01:06:58.186Z,27.84
2022-08-26T01:09:00.117Z,28.54
2022-08-26T01:11:02.578Z,27.74
2022-08-26T01:13:12.618Z,27.73
2022-08-26T01:15:19.715Z,27.90
2022-08-26T01:17:21.414Z,28.13
2022-08-26T01:19:31.237Z,28.46
2022-08-26T01:21:42.372Z,28.24
2022-08-26T01:23:50.941Z,28.09
2022-08-26T01:25:59.435Z,28.90
2022-08-26T01:28:05.787Z,28.25
2022-08-26T01:30:07.961Z,27.67
2022-08-26T01:32:14.729Z,27.45
2022-08-26T01:34:20.729Z,27.25
2022-08-26T01:36:22.747Z,27.35
2022-08-26T01:38:24.529Z,27.22
2022-08-26T01:40:32.105Z,27.49
2022-08-26T01:42:34.389Z,27.21
2022-08-26T01:44:41.660Z,27.03
2022-08-26T01:46:45.774Z,26.93
2022-08-26T01:48:49.095Z,27.11
2022-08-26T01:50:56.459Z,27.42
2022-08-26T01:53:02.067Z,27.19
2022-08-26T01:55:05.407Z,27.01
2022-08-26T01:57:08.819Z,27.67
2022-08-26T01:59:14.879Z,27.66
2022-08-26T02:01:19.088Z,27.41
2022-08-26T02:03:24.402Z,27.86
2022-08-26T02:05:26.059Z,27.09
2022-08-26T02:07:28.635Z,27.32
2022-08-26T02:09:30.823Z,27.16
2022-08-26T02:11:33.990Z,27.96
2022-08-26T02:13:41.677Z,28.07
2022-08-26T02:15:44.665Z,28.29
2022-08-26T02:17:47.399Z,27.73
2022-08-26T02:19:50.584Z,26.94
2022-08-26T02:21:53.114Z,27.04
2022-08-26T02:23:56.227Z,27.99
2022-08-26T02:26:06.086Z,28.28
2022-08-26T02:28:10.468Z,28.31
2022-08-26T02:30:14.851Z,28.15
2022-08-26T02:32:18.873Z,28.08
2022-08-26T02:34:23.867Z,28.01
2022-08-26T02:36:29.716Z,28.04
2022-08-26T02:38:31.298Z,28.02
2022-08-26T02:40:39.343Z,27.96
2022-08-26T02:42:41.729Z,27.85
2022-08-26T02:44:44.107Z,27.75
2022-08-26T02:46:47.070Z,27.08
2022-08-26T02:48:48.958Z,27.21
2022-08-26T02:50:50.583Z,27.31
2022-08-26T02:52:52.773Z,27.74
2022-08-26T02:54:54.368Z,27.85
2022-08-26T02:56:56.841Z,27.59
2022-08-26T02:58:59.081Z,27.74
2022-08-26T03:01:01.571Z,27.66
2022-08-26T03:03:06.678Z,27.44
2022-08-26T03:05:08.963Z,27.60
2022-08-26T03:07:10.551Z,27.50
2022-08-26T03:09:15.978Z,27.58
2022-08-26T03:11:20.566Z,27.66
2022-08-26T03:13:23.382Z,27.61
2022-08-26T03:15:25.055Z,27.35
2022-08-26T03:17:27.078Z,26.24
2022-08-26T03:19:29.042Z,26.74
2022-08-26T03:21:33.673Z,27.32
2022-08-26T03:23:38.891Z,27.32
2022-08-26T03:25:40.844Z,26.71
2022-08-26T03:27:43.225Z,26.31
2022-08-26T03:30:03.498Z,26.47
2022-08-26T03:32:06.340Z,26.49
2022-08-26T03:34:08.085Z,25.90
2022-08-26T03:36:09.702Z,25.96
2022-08-26T03:38:12.920Z,25.51
2022-08-26T03:40:14.651Z,25.61
2022-08-26T03:42:16.301Z,25.71
2022-08-26T03:44:18.160Z,25.92
2022-08-26T03:46:20.666Z,25.82
2022-08-26T03:48:22.783Z,25.49
2022-08-26T03:50:24.680Z,25.68
2022-08-26T03:52:30.283Z,26.09
2022-08-26T03:54:31.895Z,26.40
2022-08-26T03:56:33.619Z,26.76
2022-08-26T03:58:35.478Z,25.89
2022-08-26T04:00:37.079Z,26.02
2022-08-26T04:02:38.721Z,25.44
2022-08-26T04:04:40.340Z,25.29
2022-08-26T04:06:45.939Z,25.88
2022-08-26T04:08:47.514Z,26.50
2022-08-26T04:10:49.620Z,26.21
2022-08-26T04:12:53.393Z,25.62
2022-08-26T04:14:54.989Z,25.85
2022-08-26T04:16:58.765Z,25.31
2022-08-26T04:19:00.388Z,25.46
2022-08-26T04:21:02.691Z,25.63
2022-08-26T04:23:09.603Z,26.69
2022-08-26T04:25:12.399Z,25.87
2022-08-26T04:27:14.034Z,25.11
2022-08-26T04:29:19.161Z,25.09
2022-08-26T04:31:20.969Z,25.69
2022-08-26T04:33:32.197Z,25.05
2022-08-26T04:35:35.268Z,25.50
2022-08-26T04:37:37.547Z,26.03
2022-08-26T04:39:39.223Z,26.73
2022-08-26T04:41:40.840Z,26.22
2022-08-26T04:43:42.884Z,26.33
2022-08-26T04:45:44.556Z,26.06
2022-08-26T04:47:47.106Z,26.01
2022-08-26T04:49:48.699Z,25.77
2022-08-26T04:51:50.377Z,26.39
2022-08-26T04:53:52.639Z,26.85
2022-08-26T04:55:55.246Z,26.95
2022-08-26T04:57:57.543Z,26.78
2022-08-26T04:59:59.489Z,26.09
2022-08-26T05:02:01.809Z,25.58
2022-08-26T05:04:05.017Z,25.32
2022-08-26T05:06:09.808Z,25.23
2022-08-26T05:08:13.204Z,25.77
2022-08-26T05:10:14.877Z,25.64
2022-08-26T05:12:16.506Z,25.31
2022-08-26T05:14:18.406Z,24.91
2022-08-26T05:16:20.140Z,26.27
2022-08-26T05:18:24.019Z,26.00
2022-08-26T05:20:26.273Z,25.82
2022-08-26T05:22:27.906Z,25.05
2022-08-26T05:24:30.253Z,25.74
2022-08-26T05:26:32.475Z,25.25
2022-08-26T05:28:34.170Z,25.63
2022-08-26T05:30:38.169Z,25.90
2022-08-26T05:32:40.177Z,25.46
2022-08-26T05:34:42.878Z,25.58
2022-08-26T05:36:44.743Z,25.82
2022-08-26T05:38:47.002Z,24.85
2022-08-26T05:40:52.524Z,24.75
2022-08-26T05:42:55.158Z,25.82
2022-08-26T05:44:56.792Z,25.34
2022-08-26T05:46:58.495Z,25.89
2022-08-26T05:49:00.072Z,26.16
2022-08-26T05:51:05.439Z,26.14
2022-08-26T05:53:09.524Z,25.78
2022-08-26T05:55:11.262Z,26.31
2022-08-26T05:57:13.879Z,26.11
2022-08-26T05:59:16.169Z,26.40
2022-08-26T06:01:28.542Z,25.89
2022-08-26T06:03:33.928Z,25.29
2022-08-26T06:05:40.127Z,24.99
2022-08-26T06:08:00.251Z,25.07
2022-08-26T06:10:30.531Z,25.64
2022-08-26T06:12:23.912Z,26.30
2022-08-26T06:14:26.101Z,26.46
2022-08-26T06:16:28.595Z,26.60
2022-08-26T06:18:36.338Z,26.87
2022-08-26T06:20:43.608Z,26.68
2022-08-26T06:23:16.774Z,26.34
2022-08-26T06:25:36.923Z,26.16
2022-08-26T06:27:39.039Z,26.83
2022-08-26T06:29:41.781Z,27.28
2022-08-26T06:31:43.629Z,26.95
2022-08-26T06:33:45.483Z,26.65
2022-08-26T06:35:48.241Z,26.58
2022-08-26T06:37:50.059Z,26.00
2022-08-26T06:39:51.680Z,26.21
2022-08-26T06:41:53.444Z,25.92
2022-08-26T06:43:56.855Z,25.43
2022-08-26T06:46:09.338Z,26.36
2022-08-26T06:48:12.054Z,26.42
2022-08-26T06:50:13.734Z,26.43
2022-08-26T06:52:16.520Z,27.26
2022-08-26T06:54:21.735Z,26.56
2022-08-26T06:56:26.036Z,25.04
2022-08-26T06:58:27.673Z,25.85
2022-08-26T07:00:29.352Z,24.41
2022-08-26T07:02:30.971Z,25.62
2022-08-26T07:04:33.869Z,26.75
2022-08-26T07:06:40.474Z,26.73
2022-08-26T07:08:42.134Z,26.95
2022-08-26T07:10:44.038Z,27.54
2022-08-26T07:12:47.263Z,27.40
2022-08-26T07:14:49.018Z,27.27
2022-08-26T07:16:51.187Z,27.42
2022-08-26T07:18:53.979Z,25.48
2022-08-26T07:20:55.600Z,27.13
2022-08-26T07:22:58.968Z,27.72
2022-08-26T07:25:00.524Z,26.94
2022-08-26T07:27:05.562Z,25.74
2022-08-26T07:29:07.269Z,27.51
2022-08-26T07:31:10.918Z,28.36
2022-08-26T07:33:13.784Z,27.69
2022-08-26T07:35:15.811Z,27.95
2022-08-26T07:37:17.940Z,27.97
2022-08-26T07:39:20.742Z,27.93
2022-08-26T07:41:24.832Z,27.45
2022-08-26T07:43:26.467Z,28.12
2022-08-26T07:45:30.923Z,27.81
2022-08-26T07:47:32.998Z,28.17
2022-08-26T07:49:35.422Z,28.28
2022-08-26T07:51:37.698Z,27.77
2022-08-26T07:53:39.926Z,27.88
2022-08-26T07:55:41.871Z,25.70
2022-08-26T07:57:43.792Z,27.34
2022-08-26T07:59:45.362Z,27.13
2022-08-26T08:01:47.859Z,27.21
2022-08-26T08:03:51.749Z,27.81
2022-08-26T08:05:53.605Z,28.19
2022-08-26T08:08:17.326Z,27.95
2022-08-26T08:10:21.707Z,28.82
2022-08-26T08:12:26.723Z,28.18
2022-08-26T08:14:28.442Z,28.18
2022-08-26T08:16:32.283Z,27.61
2022-08-26T08:18:35.166Z,28.37
2022-08-26T08:20:36.806Z,28.26
2022-08-26T08:22:38.485Z,28.51
2022-08-26T08:24:40.044Z,27.94
2022-08-26T08:26:41.827Z,28.51
2022-08-26T08:28:43.418Z,28.54
2022-08-26T08:30:45.685Z,27.56
2022-08-26T08:32:47.848Z,28.34
2022-08-26T08:34:49.812Z,28.92
2022-08-26T08:36:53.523Z,28.94
2022-08-26T08:38:55.872Z,27.86
2022-08-26T08:40:57.464Z,27.81
2022-08-26T08:43:04.201Z,29.23
2022-08-26T08:45:12.884Z,28.91
2022-08-26T08:47:32.319Z,28.72
2022-08-26T08:49:34.592Z,28.30
2022-08-26T08:51:54.315Z,29.13
2022-08-26T08:53:59.683Z,28.97
2022-08-26T08:56:36.823Z,29.08
2022-08-26T08:58:51.517Z,29.05
2022-08-26T09:01:02.439Z,29.51
2022-08-26T09:03:18.328Z,29.15
2022-08-26T09:05:20.171Z,29.68
2022-08-26T09:07:27.917Z,28.99
2022-08-26T09:09:37.673Z,28.99
2022-08-26T09:11:39.278Z,28.64
2022-08-26T09:13:46.775Z,28.86
2022-08-26T09:16:10.083Z,28.74
2022-08-26T09:18:35.094Z,29.89
2022-08-26T09:20:54.866Z,29.95
2022-08-26T09:22:57.458Z,30.15
2022-08-26T09:24:59.610Z,29.41
2022-08-26T09:27:01.283Z,29.93
2022-08-26T09:29:08.787Z,29.56
2022-08-26T09:31:25.175Z,29.75
2022-08-26T09:33:31.796Z,29.63
2022-08-26T09:35:39.892Z,30.16
2022-08-26T09:39:52.502Z,30.02
2022-08-26T09:42:14.253Z,30.09
2022-08-26T09:44:19.032Z,30.68
2022-08-26T09:46:28.108Z,30.34
2022-08-26T09:48:29.808Z,31.24
2022-08-26T09:50:53.773Z,31.30
2022-08-26T09:53:25.127Z,31.46
2022-08-26T09:55:30.520Z,30.95
2022-08-26T09:57:44.000Z,31.47
2022-08-26T09:59:47.037Z,30.91
2022-08-26T10:01:48.841Z,31.01
2022-08-26T10:03:52.030Z,30.26
2022-08-26T10:06:01.253Z,31.37
2022-08-26T10:08:40.126Z,31.75
2022-08-26T10:10:45.127Z,30.91
2022-08-26T10:12:56.552Z,31.08
2022-08-26T10:15:03.662Z,31.35
2022-08-26T10:17:43.309Z,31.34
2022-08-26T10:19:57.810Z,31.29
2022-08-26T10:22:32.403Z,31.72
2022-08-26T10:24:43.699Z,31.97
2022-08-26T10:27:15.104Z,32.19
2022-08-26T10:29:23.048Z,31.83
2022-08-26T10:31:38.131Z,32.06
2022-08-26T10:33:42.088Z,32.40
2022-08-26T10:36:03.302Z,32.55
2022-08-26T10:38:11.942Z,31.47
2022-08-26T10:40:23.633Z,32.95
2022-08-26T10:42:42.733Z,32.91
2022-08-26T10:44:47.420Z,32.71
2022-08-26T10:46:56.896Z,32.71
2022-08-26T10:49:14.031Z,32.28
2022-08-26T10:51:24.502Z,32.82
2022-08-26T10:53:52.947Z,32.70
2022-08-26T10:55:59.412Z,32.34
2022-08-26T10:58:42.672Z,32.78
2022-08-26T11:03:24.630Z,32.53
2022-08-26T11:05:26.423Z,32.46
2022-08-26T11:07:46.128Z,32.72
2022-08-26T11:09:49.040Z,32.64
2022-08-26T11:11:51.495Z,31.37
2022-08-26T11:14:05.812Z,31.50
2022-08-26T11:16:08.353Z,32.86
2022-08-26T11:18:13.349Z,33.50
2022-08-26T11:20:34.882Z,33.30
2022-08-26T11:22:47.559Z,33.40
2022-08-26T11:24:52.750Z,33.50
2022-08-26T11:26:56.418Z,33.48
2022-08-26T11:28:58.401Z,33.72
2022-08-26T11:31:00.104Z,33.38
2022-08-26T11:33:01.710Z,34.20
2022-08-26T11:35:06.586Z,31.91
2022-08-26T11:37:17.061Z,33.50
2022-08-26T11:39:25.951Z,34.02
2022-08-26T11:41:30.016Z,33.56
2022-08-26T11:43:33.186Z,34.01
2022-08-26T11:45:47.055Z,33.93
2022-08-26T11:47:49.424Z,33.50
2022-08-26T11:50:06.878Z,33.44
2022-08-26T11:52:26.529Z,33.92
2022-08-26T11:54:35.411Z,33.03
2022-08-26T11:56:39.675Z,32.80
2022-08-26T11:58:44.315Z,33.66
2022-08-26T12:00:54.514Z,33.40
2022-08-26T12:03:00.471Z,33.42
2022-08-26T12:05:02.400Z,32.78
2022-08-26T12:07:04.971Z,32.67
2022-08-26T12:09:13.934Z,33.53
2022-08-26T12:11:26.544Z,33.71
2022-08-26T12:13:28.136Z,34.57
2022-08-26T12:15:31.906Z,33.82
2022-08-26T12:17:33.534Z,34.10
2022-08-26T12:19:35.163Z,34.44
2022-08-26T12:21:37.374Z,32.22
2022-08-26T12:23:48.037Z,33.52
2022-08-26T12:25:54.482Z,33.78
2022-08-26T12:28:04.002Z,34.44
2022-08-26T12:30:12.248Z,34.16
2022-08-26T12:32:18.393Z,33.83
2022-08-26T12:34:20.210Z,34.21
2022-08-26T12:36:28.521Z,34.02
2022-08-26T12:38:31.117Z,33.16
2022-08-26T12:40:41.463Z,33.24
2022-08-26T12:42:43.183Z,32.64
2022-08-26T12:44:54.134Z,31.81
2022-08-26T12:47:05.995Z,31.59
2022-08-26T12:49:07.850Z,31.67
2022-08-26T12:51:20.025Z,31.43
2022-08-26T12:53:31.943Z,31.73
2022-08-26T12:55:36.570Z,31.16
2022-08-26T12:57:38.885Z,28.68
2022-08-26T12:59:40.869Z,28.81
2022-08-26T13:01:44.822Z,28.97
2022-08-26T13:03:46.898Z,29.15
2022-08-26T13:05:48.563Z,28.77
2022-08-26T13:08:15.298Z,29.43
2022-08-26T13:10:35.523Z,29.63
2022-08-26T13:12:37.464Z,29.98
2022-08-26T13:14:40.574Z,29.93
2022-08-26T13:16:42.620Z,30.29
2022-08-26T13:18:44.271Z,30.46
2022-08-26T13:20:46.119Z,30.43
2022-08-26T13:22:58.522Z,30.50
2022-08-26T13:25:00.879Z,30.38
2022-08-26T13:27:03.779Z,30.58
2022-08-26T13:29:10.025Z,30.65
2022-08-26T13:31:13.737Z,30.95
2022-08-26T13:33:16.816Z,30.84
2022-08-26T13:35:19.957Z,30.50
2022-08-26T13:37:34.586Z,30.56
2022-08-26T13:39:38.196Z,30.97
2022-08-26T13:41:39.869Z,30.90
2022-08-26T13:43:41.508Z,30.52
2022-08-26T13:45:43.407Z,30.50
2022-08-26T13:47:45.031Z,29.86
2022-08-26T13:49:47.007Z,30.02
2022-08-26T13:51:48.798Z,30.06
2022-08-26T13:53:51.187Z,30.35
2022-08-26T13:55:53.271Z,29.93
2022-08-26T13:57:56.352Z,30.09
2022-08-26T13:59:59.463Z,29.41
2022-08-26T14:02:02.929Z,28.88
2022-08-26T14:04:04.669Z,29.01
2022-08-26T14:06:06.265Z,29.60
2022-08-26T14:08:08.548Z,29.74
2022-08-26T14:10:11.052Z,30.06
2022-08-26T14:12:12.697Z,29.95
2022-08-26T14:14:14.315Z,30.12
2022-08-26T14:16:29.080Z,30.29
2022-08-26T14:18:43.647Z,29.88
2022-08-26T14:20:49.933Z,30.08
2022-08-26T14:23:12.558Z,30.40
2022-08-26T14:25:14.519Z,30.74
2022-08-26T14:27:16.392Z,31.08
2022-08-26T14:29:18.035Z,31.12
2022-08-26T14:31:19.780Z,31.25
2022-08-26T14:33:28.075Z,31.10
2022-08-26T14:35:31.344Z,31.30
2022-08-26T14:37:33.014Z,31.39
2022-08-26T14:39:35.233Z,29.68
2022-08-26T14:41:43.950Z,30.55
2022-08-26T14:43:54.608Z,30.03
2022-08-26T14:45:56.311Z,30.92
2022-08-26T14:47:58.850Z,30.43
2022-08-26T14:50:00.441Z,30.03
2022-08-26T14:52:02.775Z,30.33
2022-08-26T14:54:13.331Z,30.46
2022-08-26T14:56:16.786Z,30.75
2022-08-26T14:58:18.515Z,29.71
2022-08-26T15:00:20.391Z,29.90
2022-08-26T15:02:33.248Z,30.51
2022-08-26T15:04:35.509Z,30.62
2022-08-26T15:06:38.272Z,30.26
2022-08-26T15:08:40.156Z,29.89
2022-08-26T15:10:41.758Z,30.37
2022-08-26T15:12:44.307Z,30.30
2022-08-26T15:14:45.966Z,30.05
2022-08-26T15:16:54.227Z,30.11
2022-08-26T15:18:56.146Z,30.44
2022-08-26T15:20:57.749Z,29.86
2022-08-26T15:23:03.299Z,29.93
2022-08-26T15:25:08.675Z,30.29
2022-08-26T15:27:10.348Z,30.31
2022-08-26T15:29:12.970Z,29.34
2022-08-26T15:31:15.696Z,29.70
2022-08-26T15:33:17.455Z,30.35
2022-08-26T15:35:19.268Z,30.40
2022-08-26T15:37:21.004Z,30.16
2022-08-26T15:39:22.682Z,30.06
2022-08-26T15:41:24.556Z,30.29
2022-08-26T15:43:29.148Z,30.83
2022-08-26T15:45:33.073Z,30.61
2022-08-26T15:47:35.516Z,30.42
2022-08-26T15:49:56.515Z,29.97
2022-08-26T15:51:58.101Z,30.18
2022-08-26T15:54:02.823Z,30.72
2022-08-26T15:56:06.890Z,29.71
2022-08-26T15:58:10.497Z,29.76
2022-08-26T16:00:12.683Z,30.24
2022-08-26T16:02:14.716Z,30.14
2022-08-26T16:04:17.636Z,29.68
2022-08-26T16:06:22.644Z,29.81
2022-08-26T16:08:24.542Z,30.32
2022-08-26T16:10:26.149Z,29.86
2022-08-26T16:12:27.776Z,30.43
2022-08-26T16:14:30.122Z,29.98
2022-08-26T16:16:32.350Z,29.83
2022-08-26T16:18:34.210Z,30.23
2022-08-26T16:20:38.217Z,30.87
2022-08-26T16:22:40.152Z,30.15
2022-08-26T16:24:41.747Z,29.77
2022-08-26T16:26:45.346Z,30.42
2022-08-26T16:28:47.444Z,30.95
2022-08-26T16:30:49.514Z,30.51
2022-08-26T16:32:53.021Z,30.65
2022-08-26T16:34:56.347Z,30.50
2022-08-26T16:36:58.683Z,31.05
2022-08-26T16:39:00.613Z,31.31
2022-08-26T16:41:02.467Z,30.60
2022-08-26T16:43:04.879Z,30.18
2022-08-26T16:45:07.366Z,29.99
2022-08-26T16:47:08.984Z,30.26
2022-08-26T16:49:10.599Z,30.06
2022-08-26T16:51:18.098Z,30.72
2022-08-26T16:53:19.819Z,30.41
2022-08-26T16:55:22.668Z,30.44
2022-08-26T16:57:24.368Z,29.89
2022-08-26T16:59:26.450Z,29.64
2022-08-26T17:01:28.722Z,29.40
2022-08-26T17:03:30.469Z,29.77
2022-08-26T17:05:32.127Z,29.34
2022-08-26T17:07:35.614Z,29.69
2022-08-26T17:09:37.603Z,29.23
2022-08-26T17:11:43.589Z,29.14
2022-08-26T17:13:45.268Z,29.35
2022-08-26T17:15:54.197Z,29.88
2022-08-26T17:18:00.044Z,29.47
2022-08-26T17:20:08.850Z,29.27
2022-08-26T17:22:11.343Z,29.60
2022-08-26T17:24:14.231Z,29.26
2022-08-26T17:26:15.936Z,29.98
2022-08-26T17:28:17.619Z,29.83
2022-08-26T17:30:19.978Z,30.13
2022-08-26T17:32:21.676Z,30.15
2022-08-26T17:34:23.573Z,30.75
2022-08-26T17:36:28.121Z,30.67
2022-08-26T17:38:30.459Z,30.47
2022-08-26T17:40:32.146Z,30.54
2022-08-26T17:42:33.943Z,30.61
2022-08-26T17:44:35.604Z,30.46
2022-08-26T17:46:38.533Z,30.04
2022-08-26T17:48:41.308Z,29.95
2022-08-26T17:50:43.473Z,30.19
2022-08-26T17:52:51.037Z,30.10
2022-08-26T17:54:53.572Z,29.33
2022-08-26T17:56:55.197Z,29.76
2022-08-26T17:59:03.585Z,29.25
2022-08-26T18:01:06.559Z,29.36
2022-08-26T18:03:08.407Z,29.87
2022-08-26T18:05:12.676Z,29.14
2022-08-26T18:07:14.811Z,29.86
2022-08-26T18:09:16.484Z,30.01
2022-08-26T18:11:20.373Z,29.93
2022-08-26T18:13:21.962Z,30.50
2022-08-26T18:15:24.070Z,29.71
2022-08-26T18:17:25.732Z,29.85
2022-08-26T18:19:27.725Z,30.23
2022-08-26T18:21:29.425Z,29.86
2022-08-26T18:23:31.071Z,30.23
2022-08-26T18:25:33.425Z,30.09
2022-08-26T18:27:36.165Z,29.95
2022-08-26T18:29:37.766Z,29.58
2022-08-26T18:31:48.581Z,29.69
2022-08-26T18:33:50.654Z,29.66
2022-08-26T18:35:52.811Z,29.98
2022-08-26T18:37:55.769Z,29.93
2022-08-26T18:39:58.183Z,30.10
2022-08-26T18:41:59.871Z,29.61
2022-08-26T18:44:01.484Z,29.76
2022-08-26T18:46:08.146Z,29.64
2022-08-26T18:48:09.887Z,29.28
2022-08-26T18:50:11.700Z,29.82
2022-08-26T18:52:13.339Z,29.86
2022-08-26T18:54:15.051Z,30.07
2022-08-26T18:56:18.645Z,29.83
2022-08-26T18:58:20.488Z,27.85
2022-08-26T19:00:22.276Z,27.38
2022-08-26T19:02:24.545Z,27.78
2022-08-26T19:04:26.417Z,27.92
2022-08-26T19:06:31.665Z,28.03
2022-08-26T19:08:33.285Z,29.14
2022-08-26T19:10:39.476Z,29.50
2022-08-26T19:12:41.354Z,29.30
2022-08-26T19:14:43.653Z,28.95
2022-08-26T19:16:47.731Z,28.85
2022-08-26T19:18:50.319Z,29.06
2022-08-26T19:20:51.956Z,29.41
2022-08-26T19:22:53.639Z,30.19
2022-08-26T19:24:55.216Z,30.29
2022-08-26T19:27:00.794Z,30.26
2022-08-26T19:29:02.607Z,30.13
2022-08-26T19:31:04.197Z,29.86
2022-08-26T19:33:07.340Z,29.71
2022-08-26T19:35:09.334Z,29.87
2022-08-26T19:37:11.084Z,29.94
2022-08-26T19:39:12.949Z,29.85
2022-08-26T19:41:16.943Z,29.60
2022-08-26T19:43:18.604Z,29.02
2022-08-26T19:45:25.323Z,29.40
2022-08-26T19:47:27.354Z,29.10
2022-08-26T19:49:29.107Z,29.18
2022-08-26T19:51:35.164Z,29.01
2022-08-26T19:53:36.751Z,29.55
2022-08-26T19:55:38.861Z,29.60
2022-08-26T19:57:40.508Z,29.36
2022-08-26T19:59:42.939Z,29.10
2022-08-26T20:01:44.950Z,29.33
2022-08-26T20:03:46.947Z,29.04
2022-08-26T20:05:49.342Z,29.63
2022-08-26T20:07:51.168Z,29.67
2022-08-26T20:09:52.766Z,30.04
2022-08-26T20:11:56.749Z,29.63
2022-08-26T20:13:59.734Z,29.74
2022-08-26T20:16:01.412Z,29.32
2022-08-26T20:18:03.221Z,29.59
2022-08-26T20:20:33.303Z,29.08
2022-08-26T20:22:38.967Z,29.45
2022-08-26T20:24:40.729Z,29.18
2022-08-26T20:26:43.940Z,29.16
2022-08-26T20:28:45.573Z,29.09
2022-08-26T20:30:49.447Z,28.87
2022-08-26T20:32:51.175Z,28.51
2022-08-26T20:34:53.469Z,29.15
2022-08-26T20:36:55.161Z,28.60
2022-08-26T20:38:57.730Z,29.05
2022-08-26T20:40:59.427Z,29.08
2022-08-26T20:43:01.105Z,28.79
2022-08-26T20:45:03.340Z,29.21
2022-08-26T20:47:05.636Z,28.87
2022-08-26T20:49:08.184Z,29.17
2022-08-26T20:51:09.831Z,28.52
2022-08-26T20:53:11.528Z,28.78
2022-08-26T20:55:13.421Z,28.74
2022-08-26T20:57:15.078Z,28.19
2022-08-26T20:59:17.271Z,28.80
2022-08-26T21:01:24.919Z,28.96
2022-08-26T21:03:27.845Z,28.99
2022-08-26T21:05:29.491Z,28.86
2022-08-26T21:07:31.176Z,28.66
2022-08-26T21:09:32.847Z,28.60
2022-08-26T21:11:35.773Z,28.86
2022-08-26T21:13:54.497Z,28.24
2022-08-26T21:15:59.238Z,28.40
2022-08-26T21:18:00.963Z,28.58
2022-08-26T21:20:03.256Z,28.41
2022-08-26T21:22:05.524Z,28.79
2022-08-26T21:24:07.370Z,28.72
2022-08-26T21:26:11.930Z,28.60
2022-08-26T21:28:13.582Z,27.77
2022-08-26T21:30:16.026Z,28.17
2022-08-26T21:32:17.692Z,28.24
2022-08-26T21:34:19.953Z,27.77
2022-08-26T21:36:21.655Z,28.55
2022-08-26T21:38:23.376Z,28.02
2022-08-26T21:40:25.338Z,28.62
2022-08-26T21:42:27.583Z,28.25
2022-08-26T21:44:29.205Z,28.70
2022-08-26T21:46:31.199Z,28.82
2022-08-26T21:48:34.531Z,28.53
2022-08-26T21:50:38.243Z,28.32
2022-08-26T21:52:40.216Z,28.22
2022-08-26T21:54:42.003Z,28.23
2022-08-26T21:56:51.102Z,28.14
2022-08-26T21:58:55.133Z,27.35
2022-08-26T22:00:56.827Z,28.15
2022-08-26T22:03:00.788Z,28.54
2022-08-26T22:05:02.496Z,27.95
2022-08-26T22:07:04.362Z,27.83
2022-08-26T22:09:06.110Z,28.23
2022-08-26T22:11:09.431Z,28.38
2022-08-26T22:13:11.345Z,28.27
2022-08-26T22:15:19.833Z,27.80
2022-08-26T22:17:22.557Z,28.31
2022-08-26T22:19:25.099Z,28.49
2022-08-26T22:21:28.463Z,28.13
2022-08-26T22:23:30.398Z,27.81
2022-08-26T22:25:32.191Z,28.22
2022-08-26T22:27:33.826Z,28.19
2022-08-26T22:29:42.262Z,28.14
2022-08-26T22:31:43.962Z,28.19
2022-08-26T22:33:45.793Z,28.17
2022-08-26T22:35:51.123Z,27.84
2022-08-26T22:37:52.770Z,27.36
2022-08-26T22:39:58.877Z,27.21
2022-08-26T22:42:00.963Z,26.90
2022-08-26T22:44:03.482Z,27.37
2022-08-26T22:46:08.528Z,27.52
2022-08-26T22:48:12.633Z,27.48
2022-08-26T22:50:14.278Z,27.78
2022-08-26T22:52:15.961Z,27.83
2022-08-26T22:54:17.633Z,28.16
2022-08-26T22:56:21.189Z,28.24
2022-08-26T22:58:23.040Z,27.84
2022-08-26T23:00:32.995Z,27.17
2022-08-26T23:02:34.797Z,27.16
2022-08-26T23:04:36.673Z,27.74
2022-08-26T23:06:40.917Z,27.93
2022-08-26T23:08:45.307Z,27.45
2022-08-26T23:10:48.100Z,27.73
2022-08-26T23:12:49.861Z,27.69
2022-08-26T23:14:51.534Z,27.85
2022-08-26T23:16:53.573Z,28.11
2022-08-26T23:18:55.261Z,28.05
2022-08-26T23:20:56.926Z,28.17
2022-08-26T23:22:59.014Z,28.25
2022-08-26T23:25:00.814Z,28.10
2022-08-26T23:27:02.842Z,27.60
2022-08-26T23:29:07.035Z,27.87
2022-08-26T23:31:08.831Z,27.53
2022-08-26T23:33:10.440Z,27.43
2022-08-26T23:35:14.584Z,27.47
2022-08-26T23:37:16.491Z,27.61
2022-08-26T23:39:19.039Z,27.02
2022-08-26T23:41:24.216Z,27.19
2022-08-26T23:43:25.870Z,27.20
2022-08-26T23:45:27.665Z,27.76
2022-08-26T23:47:29.326Z,27.73
2022-08-26T23:49:31.901Z,27.34
2022-08-26T23:51:52.172Z,27.67
2022-08-26T23:53:53.825Z,27.09
2022-08-26T23:55:55.861Z,27.13
2022-08-26T23:57:57.646Z,26.87
2022-08-26T23:59:59.554Z,27.32
